sensor_id;sensor_type;location;lat;lon;timestamp;temperature;humidity
24164;DHT22;12319;49.204;8.116;2023-06-26T00:00:11;22.60;51.30
24164;DHT22;12319;49.204;8.116;2023-06-26T00:02:38;22.50;51.20
24164;DHT22;12319;49.204;8.116;2023-06-26T00:05:04;22.50;51.30
24164;DHT22;12319;49.204;8.116;2023-06-26T00:07:30;22.40;51.20
24164;DHT22;12319;49.204;8.116;2023-06-26T00:09:57;22.40;51.30
24164;DHT22;12319;49.204;8.116;2023-06-26T00:12:24;22.40;51.50
24164;DHT22;12319;49.204;8.116;2023-06-26T00:14:49;22.40;51.50
24164;DHT22;12319;49.204;8.116;2023-06-26T00:17:15;22.30;51.50
24164;DHT22;12319;49.204;8.116;2023-06-26T00:19:40;22.30;51.60
24164;DHT22;12319;49.204;8.116;2023-06-26T00:22:06;22.30;51.60
24164;DHT22;12319;49.204;8.116;2023-06-26T00:24:31;22.30;51.80
24164;DHT22;12319;49.204;8.116;2023-06-26T00:26:57;22.20;51.70
24164;DHT22;12319;49.204;8.116;2023-06-26T00:29:24;22.30;51.80
24164;DHT22;12319;49.204;8.116;2023-06-26T00:31:49;22.20;52.10
24164;DHT22;12319;49.204;8.116;2023-06-26T00:34:15;22.10;52.00
24164;DHT22;12319;49.204;8.116;2023-06-26T00:36:41;22.00;51.90
24164;DHT22;12319;49.204;8.116;2023-06-26T00:39:09;22.00;52.00
24164;DHT22;12319;49.204;8.116;2023-06-26T00:41:36;22.00;52.10
24164;DHT22;12319;49.204;8.116;2023-06-26T00:44:02;22.00;52.20
24164;DHT22;12319;49.204;8.116;2023-06-26T00:46:27;22.00;52.30
24164;DHT22;12319;49.204;8.116;2023-06-26T00:48:54;22.00;52.50
24164;DHT22;12319;49.204;8.116;2023-06-26T00:51:20;21.90;52.40
24164;DHT22;12319;49.204;8.116;2023-06-26T00:53:46;21.90;52.40
24164;DHT22;12319;49.204;8.116;2023-06-26T00:56:13;21.90;52.60
24164;DHT22;12319;49.204;8.116;2023-06-26T00:58:39;21.80;52.60
24164;DHT22;12319;49.204;8.116;2023-06-26T01:01:04;21.90;52.70
24164;DHT22;12319;49.204;8.116;2023-06-26T01:03:33;21.90;52.80
24164;DHT22;12319;49.204;8.116;2023-06-26T01:06:00;21.80;52.80
24164;DHT22;12319;49.204;8.116;2023-06-26T01:08:27;21.80;53.00
24164;DHT22;12319;49.204;8.116;2023-06-26T01:10:53;21.70;53.00
24164;DHT22;12319;49.204;8.116;2023-06-26T01:13:18;21.80;53.20
24164;DHT22;12319;49.204;8.116;2023-06-26T01:15:46;21.70;53.10
24164;DHT22;12319;49.204;8.116;2023-06-26T01:18:12;21.70;53.10
24164;DHT22;12319;49.204;8.116;2023-06-26T01:20:41;21.60;53.20
24164;DHT22;12319;49.204;8.116;2023-06-26T01:26:12;21.50;53.50
24164;DHT22;12319;49.204;8.116;2023-06-26T01:28:42;21.60;53.80
24164;DHT22;12319;49.204;8.116;2023-06-26T01:31:07;21.50;53.40
24164;DHT22;12319;49.204;8.116;2023-06-26T01:33:34;21.50;53.40
24164;DHT22;12319;49.204;8.116;2023-06-26T01:36:00;21.50;53.60
24164;DHT22;12319;49.204;8.116;2023-06-26T01:38:26;21.50;53.60
24164;DHT22;12319;49.204;8.116;2023-06-26T01:40:52;21.40;53.70
24164;DHT22;12319;49.204;8.116;2023-06-26T01:46:16;21.40;54.00
24164;DHT22;12319;49.204;8.116;2023-06-26T01:51:37;21.30;54.00
24164;DHT22;12319;49.204;8.116;2023-06-26T01:54:06;21.30;53.90
24164;DHT22;12319;49.204;8.116;2023-06-26T01:56:33;21.30;53.90
24164;DHT22;12319;49.204;8.116;2023-06-26T01:59:00;21.30;54.10
24164;DHT22;12319;49.204;8.116;2023-06-26T02:01:26;21.20;54.10
24164;DHT22;12319;49.204;8.116;2023-06-26T02:03:52;21.20;54.10
24164;DHT22;12319;49.204;8.116;2023-06-26T02:06:17;21.20;54.30
24164;DHT22;12319;49.204;8.116;2023-06-26T02:08:43;21.20;54.50
24164;DHT22;12319;49.204;8.116;2023-06-26T02:11:08;21.20;54.50
24164;DHT22;12319;49.204;8.116;2023-06-26T02:13:34;21.20;54.50
24164;DHT22;12319;49.204;8.116;2023-06-26T02:15:59;21.10;54.40
24164;DHT22;12319;49.204;8.116;2023-06-26T02:18:25;21.10;54.40
24164;DHT22;12319;49.204;8.116;2023-06-26T02:20:50;21.00;54.80
24164;DHT22;12319;49.204;8.116;2023-06-26T02:23:16;21.00;54.70
24164;DHT22;12319;49.204;8.116;2023-06-26T02:25:41;21.00;54.90
24164;DHT22;12319;49.204;8.116;2023-06-26T02:28:07;20.90;54.90
24164;DHT22;12319;49.204;8.116;2023-06-26T02:30:32;20.90;55.00
24164;DHT22;12319;49.204;8.116;2023-06-26T02:32:58;20.90;55.20
24164;DHT22;12319;49.204;8.116;2023-06-26T02:35:23;20.80;55.30
24164;DHT22;12319;49.204;8.116;2023-06-26T02:37:49;20.80;55.40
24164;DHT22;12319;49.204;8.116;2023-06-26T02:40:14;20.70;55.40
24164;DHT22;12319;49.204;8.116;2023-06-26T02:42:40;20.70;55.60
24164;DHT22;12319;49.204;8.116;2023-06-26T02:45:06;20.60;55.80
24164;DHT22;12319;49.204;8.116;2023-06-26T02:47:32;20.40;55.90
24164;DHT22;12319;49.204;8.116;2023-06-26T02:49:57;20.30;56.20
24164;DHT22;12319;49.204;8.116;2023-06-26T02:52:23;20.20;56.20
24164;DHT22;12319;49.204;8.116;2023-06-26T02:54:48;20.20;56.30
24164;DHT22;12319;49.204;8.116;2023-06-26T02:57:14;20.20;56.40
24164;DHT22;12319;49.204;8.116;2023-06-26T02:59:40;20.20;57.00
24164;DHT22;12319;49.204;8.116;2023-06-26T03:02:05;20.10;56.30
24164;DHT22;12319;49.204;8.116;2023-06-26T03:04:31;20.20;56.50
24164;DHT22;12319;49.204;8.116;2023-06-26T03:06:56;20.20;56.60
24164;DHT22;12319;49.204;8.116;2023-06-26T03:09:22;20.20;56.50
24164;DHT22;12319;49.204;8.116;2023-06-26T03:11:48;20.30;56.50
24164;DHT22;12319;49.204;8.116;2023-06-26T03:14:13;20.30;56.50
24164;DHT22;12319;49.204;8.116;2023-06-26T03:16:39;20.30;56.60
24164;DHT22;12319;49.204;8.116;2023-06-26T03:19:05;20.30;56.80
24164;DHT22;12319;49.204;8.116;2023-06-26T03:21:31;20.30;57.00
24164;DHT22;12319;49.204;8.116;2023-06-26T03:23:57;20.30;57.30
24164;DHT22;12319;49.204;8.116;2023-06-26T03:26:22;20.30;57.10
24164;DHT22;12319;49.204;8.116;2023-06-26T03:28:53;20.30;57.10
24164;DHT22;12319;49.204;8.116;2023-06-26T03:31:19;20.20;57.90
24164;DHT22;12319;49.204;8.116;2023-06-26T03:33:44;20.20;57.30
24164;DHT22;12319;49.204;8.116;2023-06-26T03:36:10;20.20;57.20
24164;DHT22;12319;49.204;8.116;2023-06-26T03:38:35;20.20;57.30
24164;DHT22;12319;49.204;8.116;2023-06-26T03:41:01;20.20;57.70
24164;DHT22;12319;49.204;8.116;2023-06-26T03:43:27;20.20;57.50
24164;DHT22;12319;49.204;8.116;2023-06-26T03:45:53;20.20;57.40
24164;DHT22;12319;49.204;8.116;2023-06-26T03:48:18;20.20;57.50
24164;DHT22;12319;49.204;8.116;2023-06-26T03:50:44;20.20;57.50
24164;DHT22;12319;49.204;8.116;2023-06-26T03:53:10;20.20;57.60
24164;DHT22;12319;49.204;8.116;2023-06-26T03:55:35;20.20;57.60
24164;DHT22;12319;49.204;8.116;2023-06-26T03:58:01;20.20;57.60
24164;DHT22;12319;49.204;8.116;2023-06-26T04:00:26;20.20;57.70
24164;DHT22;12319;49.204;8.116;2023-06-26T04:02:52;20.20;57.70
24164;DHT22;12319;49.204;8.116;2023-06-26T04:05:17;20.30;58.00
24164;DHT22;12319;49.204;8.116;2023-06-26T04:07:43;20.20;57.90
24164;DHT22;12319;49.204;8.116;2023-06-26T04:10:09;20.20;58.10
24164;DHT22;12319;49.204;8.116;2023-06-26T04:12:34;20.30;58.10
24164;DHT22;12319;49.204;8.116;2023-06-26T04:15:00;20.30;58.10
24164;DHT22;12319;49.204;8.116;2023-06-26T04:17:25;20.40;58.00
24164;DHT22;12319;49.204;8.116;2023-06-26T04:19:51;20.40;58.30
24164;DHT22;12319;49.204;8.116;2023-06-26T04:22:17;20.40;58.40
24164;DHT22;12319;49.204;8.116;2023-06-26T04:24:42;20.40;58.20
24164;DHT22;12319;49.204;8.116;2023-06-26T04:27:09;20.40;58.30
24164;DHT22;12319;49.204;8.116;2023-06-26T04:29:34;20.40;58.40
24164;DHT22;12319;49.204;8.116;2023-06-26T04:32:00;20.50;58.50
24164;DHT22;12319;49.204;8.116;2023-06-26T04:34:29;20.50;58.70
24164;DHT22;12319;49.204;8.116;2023-06-26T04:36:57;20.50;58.70
24164;DHT22;12319;49.204;8.116;2023-06-26T04:39:23;20.60;58.80
24164;DHT22;12319;49.204;8.116;2023-06-26T04:41:49;20.60;58.60
24164;DHT22;12319;49.204;8.116;2023-06-26T04:44:14;20.60;58.80
24164;DHT22;12319;49.204;8.116;2023-06-26T04:46:40;20.70;58.50
24164;DHT22;12319;49.204;8.116;2023-06-26T04:49:09;20.70;58.50
24164;DHT22;12319;49.204;8.116;2023-06-26T04:51:35;20.80;58.70
24164;DHT22;12319;49.204;8.116;2023-06-26T04:54:06;20.80;58.70
24164;DHT22;12319;49.204;8.116;2023-06-26T04:56:32;20.90;58.80
24164;DHT22;12319;49.204;8.116;2023-06-26T04:58:57;20.90;58.60
24164;DHT22;12319;49.204;8.116;2023-06-26T05:01:23;21.00;58.60
24164;DHT22;12319;49.204;8.116;2023-06-26T05:03:48;21.10;58.80
24164;DHT22;12319;49.204;8.116;2023-06-26T05:06:14;21.20;58.80
24164;DHT22;12319;49.204;8.116;2023-06-26T05:08:40;21.30;58.60
24164;DHT22;12319;49.204;8.116;2023-06-26T05:11:05;21.40;58.70
24164;DHT22;12319;49.204;8.116;2023-06-26T05:13:31;21.50;58.60
24164;DHT22;12319;49.204;8.116;2023-06-26T05:15:56;21.60;58.50
24164;DHT22;12319;49.204;8.116;2023-06-26T05:18:22;21.70;58.40
24164;DHT22;12319;49.204;8.116;2023-06-26T05:20:48;21.90;58.30
24164;DHT22;12319;49.204;8.116;2023-06-26T05:23:14;22.00;58.20
24164;DHT22;12319;49.204;8.116;2023-06-26T05:25:41;22.10;58.10
24164;DHT22;12319;49.204;8.116;2023-06-26T05:28:07;22.30;58.00
24164;DHT22;12319;49.204;8.116;2023-06-26T05:30:36;22.40;58.10
24164;DHT22;12319;49.204;8.116;2023-06-26T05:33:02;22.60;57.80
24164;DHT22;12319;49.204;8.116;2023-06-26T05:35:29;22.80;57.80
24164;DHT22;12319;49.204;8.116;2023-06-26T05:37:58;22.90;57.70
24164;DHT22;12319;49.204;8.116;2023-06-26T05:40:25;23.00;57.50
24164;DHT22;12319;49.204;8.116;2023-06-26T05:42:51;23.20;57.50
24164;DHT22;12319;49.204;8.116;2023-06-26T05:45:16;23.50;57.40
24164;DHT22;12319;49.204;8.116;2023-06-26T05:47:42;23.80;57.50
24164;DHT22;12319;49.204;8.116;2023-06-26T05:50:09;24.40;57.90
24164;DHT22;12319;49.204;8.116;2023-06-26T05:52:35;25.90;58.00
24164;DHT22;12319;49.204;8.116;2023-06-26T05:55:01;28.00;55.80
24164;DHT22;12319;49.204;8.116;2023-06-26T05:57:28;30.10;53.20
24164;DHT22;12319;49.204;8.116;2023-06-26T05:59:54;32.00;50.70
24164;DHT22;12319;49.204;8.116;2023-06-26T06:02:20;33.70;48.80
24164;DHT22;12319;49.204;8.116;2023-06-26T06:04:46;35.10;46.90
24164;DHT22;12319;49.204;8.116;2023-06-26T06:07:12;36.30;45.40
24164;DHT22;12319;49.204;8.116;2023-06-26T06:09:38;37.40;44.10
24164;DHT22;12319;49.204;8.116;2023-06-26T06:12:05;38.40;42.80
24164;DHT22;12319;49.204;8.116;2023-06-26T06:14:34;39.30;41.40
24164;DHT22;12319;49.204;8.116;2023-06-26T06:17:00;39.80;40.70
24164;DHT22;12319;49.204;8.116;2023-06-26T06:19:26;40.50;40.10
24164;DHT22;12319;49.204;8.116;2023-06-26T06:21:52;41.10;39.60
24164;DHT22;12319;49.204;8.116;2023-06-26T06:24:18;41.60;38.40
24164;DHT22;12319;49.204;8.116;2023-06-26T06:26:44;41.90;37.90
24164;DHT22;12319;49.204;8.116;2023-06-26T06:29:09;42.30;37.40
24164;DHT22;12319;49.204;8.116;2023-06-26T06:31:35;42.70;36.60
24164;DHT22;12319;49.204;8.116;2023-06-26T06:34:01;43.00;36.50
24164;DHT22;12319;49.204;8.116;2023-06-26T06:36:27;43.30;35.70
24164;DHT22;12319;49.204;8.116;2023-06-26T06:38:52;43.60;34.90
24164;DHT22;12319;49.204;8.116;2023-06-26T06:41:18;43.90;34.40
24164;DHT22;12319;49.204;8.116;2023-06-26T06:43:44;44.40;34.40
24164;DHT22;12319;49.204;8.116;2023-06-26T06:46:09;44.50;34.20
24164;DHT22;12319;49.204;8.116;2023-06-26T06:48:35;44.70;33.90
24164;DHT22;12319;49.204;8.116;2023-06-26T06:51:01;45.00;33.50
24164;DHT22;12319;49.204;8.116;2023-06-26T06:53:26;45.40;33.20
24164;DHT22;12319;49.204;8.116;2023-06-26T06:55:53;45.70;32.60
24164;DHT22;12319;49.204;8.116;2023-06-26T06:58:18;46.10;32.20
24164;DHT22;12319;49.204;8.116;2023-06-26T07:00:48;46.40;31.70
24164;DHT22;12319;49.204;8.116;2023-06-26T07:03:14;46.80;31.60
24164;DHT22;12319;49.204;8.116;2023-06-26T07:05:41;47.10;31.50
24164;DHT22;12319;49.204;8.116;2023-06-26T07:08:07;47.50;30.90
24164;DHT22;12319;49.204;8.116;2023-06-26T07:10:32;47.70;31.00
24164;DHT22;12319;49.204;8.116;2023-06-26T07:12:58;48.00;30.50
24164;DHT22;12319;49.204;8.116;2023-06-26T07:15:24;48.20;30.00
24164;DHT22;12319;49.204;8.116;2023-06-26T07:17:49;48.30;29.60
24164;DHT22;12319;49.204;8.116;2023-06-26T07:20:15;48.40;29.80
24164;DHT22;12319;49.204;8.116;2023-06-26T07:22:42;48.40;29.80
24164;DHT22;12319;49.204;8.116;2023-06-26T07:25:08;48.50;29.40
24164;DHT22;12319;49.204;8.116;2023-06-26T07:27:37;48.60;29.30
24164;DHT22;12319;49.204;8.116;2023-06-26T07:30:03;48.50;29.10
24164;DHT22;12319;49.204;8.116;2023-06-26T07:32:29;48.50;29.20
24164;DHT22;12319;49.204;8.116;2023-06-26T07:34:55;48.50;28.90
24164;DHT22;12319;49.204;8.116;2023-06-26T07:37:20;48.50;29.20
24164;DHT22;12319;49.204;8.116;2023-06-26T07:39:46;48.60;29.10
24164;DHT22;12319;49.204;8.116;2023-06-26T07:42:11;48.40;29.00
24164;DHT22;12319;49.204;8.116;2023-06-26T07:44:37;48.40;28.80
24164;DHT22;12319;49.204;8.116;2023-06-26T07:47:02;47.40;28.50
24164;DHT22;12319;49.204;8.116;2023-06-26T07:49:28;46.00;28.60
24164;DHT22;12319;49.204;8.116;2023-06-26T07:51:54;44.80;28.80
24164;DHT22;12319;49.204;8.116;2023-06-26T07:54:20;43.50;29.10
24164;DHT22;12319;49.204;8.116;2023-06-26T07:57:00;42.10;29.70
24164;DHT22;12319;49.204;8.116;2023-06-26T07:59:27;40.60;30.20
24164;DHT22;12319;49.204;8.116;2023-06-26T08:01:55;39.30;31.20
24164;DHT22;12319;49.204;8.116;2023-06-26T08:04:25;38.00;32.10
24164;DHT22;12319;49.204;8.116;2023-06-26T08:06:56;36.90;32.60
24164;DHT22;12319;49.204;8.116;2023-06-26T08:09:23;36.10;33.50
24164;DHT22;12319;49.204;8.116;2023-06-26T08:11:49;35.80;34.30
24164;DHT22;12319;49.204;8.116;2023-06-26T08:14:15;36.20;34.40
24164;DHT22;12319;49.204;8.116;2023-06-26T08:16:42;36.80;34.50
24164;DHT22;12319;49.204;8.116;2023-06-26T08:19:08;37.40;34.20
24164;DHT22;12319;49.204;8.116;2023-06-26T08:21:34;38.30;33.90
24164;DHT22;12319;49.204;8.116;2023-06-26T08:23:59;38.30;33.40
24164;DHT22;12319;49.204;8.116;2023-06-26T08:26:25;38.10;33.90
24164;DHT22;12319;49.204;8.116;2023-06-26T08:28:50;38.50;33.80
24164;DHT22;12319;49.204;8.116;2023-06-26T08:31:17;38.90;33.40
24164;DHT22;12319;49.204;8.116;2023-06-26T08:33:43;38.60;33.10
24164;DHT22;12319;49.204;8.116;2023-06-26T08:36:08;37.90;33.50
24164;DHT22;12319;49.204;8.116;2023-06-26T08:38:34;37.00;34.00
24164;DHT22;12319;49.204;8.116;2023-06-26T08:40:59;36.30;35.00
24164;DHT22;12319;49.204;8.116;2023-06-26T08:43:26;35.90;36.00
24164;DHT22;12319;49.204;8.116;2023-06-26T08:45:52;35.50;36.10
24164;DHT22;12319;49.204;8.116;2023-06-26T08:48:18;35.20;36.60
24164;DHT22;12319;49.204;8.116;2023-06-26T08:50:48;34.90;37.00
24164;DHT22;12319;49.204;8.116;2023-06-26T08:55:58;34.50;38.00
24164;DHT22;12319;49.204;8.116;2023-06-26T08:58:24;34.30;38.50
24164;DHT22;12319;49.204;8.116;2023-06-26T09:00:50;34.10;38.60
24164;DHT22;12319;49.204;8.116;2023-06-26T09:03:17;34.00;38.50
24164;DHT22;12319;49.204;8.116;2023-06-26T09:05:42;33.90;39.30
24164;DHT22;12319;49.204;8.116;2023-06-26T09:08:08;33.80;39.40
24164;DHT22;12319;49.204;8.116;2023-06-26T09:10:34;33.80;39.40
24164;DHT22;12319;49.204;8.116;2023-06-26T09:12:59;33.80;39.40
24164;DHT22;12319;49.204;8.116;2023-06-26T09:15:37;33.80;39.70
24164;DHT22;12319;49.204;8.116;2023-06-26T09:18:04;33.60;40.30
24164;DHT22;12319;49.204;8.116;2023-06-26T09:20:31;33.40;40.40
24164;DHT22;12319;49.204;8.116;2023-06-26T09:22:59;33.20;41.30
24164;DHT22;12319;49.204;8.116;2023-06-26T09:25:25;33.00;41.10
24164;DHT22;12319;49.204;8.116;2023-06-26T09:27:52;32.90;41.30
24164;DHT22;12319;49.204;8.116;2023-06-26T09:30:18;32.80;41.10
24164;DHT22;12319;49.204;8.116;2023-06-26T09:32:44;32.80;41.90
24164;DHT22;12319;49.204;8.116;2023-06-26T09:35:10;32.70;42.20
24164;DHT22;12319;49.204;8.116;2023-06-26T09:37:36;32.60;41.80
24164;DHT22;12319;49.204;8.116;2023-06-26T09:40:02;32.50;42.00
24164;DHT22;12319;49.204;8.116;2023-06-26T09:42:29;32.40;42.50
24164;DHT22;12319;49.204;8.116;2023-06-26T09:44:54;32.30;42.50
24164;DHT22;12319;49.204;8.116;2023-06-26T09:47:20;32.50;42.80
24164;DHT22;12319;49.204;8.116;2023-06-26T09:49:46;32.70;42.60
24164;DHT22;12319;49.204;8.116;2023-06-26T09:52:16;32.80;42.50
24164;DHT22;12319;49.204;8.116;2023-06-26T09:54:45;32.90;42.80
24164;DHT22;12319;49.204;8.116;2023-06-26T09:57:12;33.00;42.30
24164;DHT22;12319;49.204;8.116;2023-06-26T09:59:39;33.10;42.30
24164;DHT22;12319;49.204;8.116;2023-06-26T10:02:05;33.10;42.20
24164;DHT22;12319;49.204;8.116;2023-06-26T10:04:30;33.20;42.30
24164;DHT22;12319;49.204;8.116;2023-06-26T10:06:57;33.20;42.20
24164;DHT22;12319;49.204;8.116;2023-06-26T10:09:24;33.20;42.30
24164;DHT22;12319;49.204;8.116;2023-06-26T10:11:57;33.20;42.20
24164;DHT22;12319;49.204;8.116;2023-06-26T10:14:26;33.20;42.30
24164;DHT22;12319;49.204;8.116;2023-06-26T10:16:55;33.10;42.20
24164;DHT22;12319;49.204;8.116;2023-06-26T10:19:22;33.00;42.40
24164;DHT22;12319;49.204;8.116;2023-06-26T10:21:55;32.90;42.50
24164;DHT22;12319;49.204;8.116;2023-06-26T10:24:25;33.00;42.80
24164;DHT22;12319;49.204;8.116;2023-06-26T10:26:57;33.00;42.60
24164;DHT22;12319;49.204;8.116;2023-06-26T10:29:25;33.10;43.30
24164;DHT22;12319;49.204;8.116;2023-06-26T10:31:53;33.20;42.50
24164;DHT22;12319;49.204;8.116;2023-06-26T10:34:21;33.20;42.10
24164;DHT22;12319;49.204;8.116;2023-06-26T10:36:47;33.20;42.20
24164;DHT22;12319;49.204;8.116;2023-06-26T10:39:13;33.20;42.50
24164;DHT22;12319;49.204;8.116;2023-06-26T10:41:40;33.20;42.30
24164;DHT22;12319;49.204;8.116;2023-06-26T10:44:12;33.20;42.10
24164;DHT22;12319;49.204;8.116;2023-06-26T10:46:55;33.10;41.90
24164;DHT22;12319;49.204;8.116;2023-06-26T10:49:27;33.10;42.10
24164;DHT22;12319;49.204;8.116;2023-06-26T10:51:53;33.10;42.10
24164;DHT22;12319;49.204;8.116;2023-06-26T10:54:21;33.10;42.00
24164;DHT22;12319;49.204;8.116;2023-06-26T10:56:48;32.90;41.90
24164;DHT22;12319;49.204;8.116;2023-06-26T10:59:19;32.90;41.70
24164;DHT22;12319;49.204;8.116;2023-06-26T11:01:58;32.90;41.60
24164;DHT22;12319;49.204;8.116;2023-06-26T11:04:43;32.90;41.30
24164;DHT22;12319;49.204;8.116;2023-06-26T11:07:16;32.90;41.20
24164;DHT22;12319;49.204;8.116;2023-06-26T11:12:41;32.90;40.70
24164;DHT22;12319;49.204;8.116;2023-06-26T11:15:18;32.90;40.60
24164;DHT22;12319;49.204;8.116;2023-06-26T11:17:44;32.90;40.50
24164;DHT22;12319;49.204;8.116;2023-06-26T11:20:15;33.00;40.40
24164;DHT22;12319;49.204;8.116;2023-06-26T11:22:44;32.90;40.30
24164;DHT22;12319;49.204;8.116;2023-06-26T11:25:10;32.90;40.10
24164;DHT22;12319;49.204;8.116;2023-06-26T11:27:40;32.80;39.80
24164;DHT22;12319;49.204;8.116;2023-06-26T11:30:07;32.80;39.90
24164;DHT22;12319;49.204;8.116;2023-06-26T11:32:34;32.70;40.00
24164;DHT22;12319;49.204;8.116;2023-06-26T11:35:00;32.60;39.80
24164;DHT22;12319;49.204;8.116;2023-06-26T11:37:26;32.60;40.00
24164;DHT22;12319;49.204;8.116;2023-06-26T11:39:52;32.60;39.90
24164;DHT22;12319;49.204;8.116;2023-06-26T11:42:19;32.60;39.50
24164;DHT22;12319;49.204;8.116;2023-06-26T11:44:44;32.50;39.90
24164;DHT22;12319;49.204;8.116;2023-06-26T11:47:21;32.60;39.70
24164;DHT22;12319;49.204;8.116;2023-06-26T11:49:48;32.60;39.50
24164;DHT22;12319;49.204;8.116;2023-06-26T11:52:15;32.50;39.10
24164;DHT22;12319;49.204;8.116;2023-06-26T11:54:44;32.50;39.50
24164;DHT22;12319;49.204;8.116;2023-06-26T11:57:14;32.50;39.20
24164;DHT22;12319;49.204;8.116;2023-06-26T11:59:40;32.50;39.20
24164;DHT22;12319;49.204;8.116;2023-06-26T12:02:07;32.60;39.20
24164;DHT22;12319;49.204;8.116;2023-06-26T12:04:33;32.60;39.20
24164;DHT22;12319;49.204;8.116;2023-06-26T12:07:00;32.70;39.80
24164;DHT22;12319;49.204;8.116;2023-06-26T12:09:29;32.80;38.90
24164;DHT22;12319;49.204;8.116;2023-06-26T12:11:55;32.90;38.90
24164;DHT22;12319;49.204;8.116;2023-06-26T12:14:22;32.90;38.70
24164;DHT22;12319;49.204;8.116;2023-06-26T12:16:48;33.00;38.80
24164;DHT22;12319;49.204;8.116;2023-06-26T12:19:14;33.20;38.50
24164;DHT22;12319;49.204;8.116;2023-06-26T12:24:08;33.40;38.30
24164;DHT22;12319;49.204;8.116;2023-06-26T12:26:34;33.50;38.30
24164;DHT22;12319;49.204;8.116;2023-06-26T12:29:10;33.60;38.20
24164;DHT22;12319;49.204;8.116;2023-06-26T12:31:42;33.70;38.30
24164;DHT22;12319;49.204;8.116;2023-06-26T12:34:10;33.90;38.40
24164;DHT22;12319;49.204;8.116;2023-06-26T12:36:44;34.20;38.10
24164;DHT22;12319;49.204;8.116;2023-06-26T12:39:11;34.30;38.00
24164;DHT22;12319;49.204;8.116;2023-06-26T12:41:53;34.50;37.80
24164;DHT22;12319;49.204;8.116;2023-06-26T12:44:26;34.70;37.20
24164;DHT22;12319;49.204;8.116;2023-06-26T12:46:57;34.70;37.00
24164;DHT22;12319;49.204;8.116;2023-06-26T12:51:55;34.80;36.80
24164;DHT22;12319;49.204;8.116;2023-06-26T12:54:21;34.90;37.10
24164;DHT22;12319;49.204;8.116;2023-06-26T12:56:47;35.00;37.00
24164;DHT22;12319;49.204;8.116;2023-06-26T12:59:12;35.10;36.70
24164;DHT22;12319;49.204;8.116;2023-06-26T13:01:38;35.10;36.70
24164;DHT22;12319;49.204;8.116;2023-06-26T13:04:03;35.20;36.60
24164;DHT22;12319;49.204;8.116;2023-06-26T13:06:29;35.20;36.50
24164;DHT22;12319;49.204;8.116;2023-06-26T13:08:54;35.10;36.30
24164;DHT22;12319;49.204;8.116;2023-06-26T13:11:20;35.20;36.50
24164;DHT22;12319;49.204;8.116;2023-06-26T13:13:46;35.30;35.80
24164;DHT22;12319;49.204;8.116;2023-06-26T13:16:12;35.30;35.30
24164;DHT22;12319;49.204;8.116;2023-06-26T13:18:37;35.30;35.60
24164;DHT22;12319;49.204;8.116;2023-06-26T13:21:03;35.40;35.70
24164;DHT22;12319;49.204;8.116;2023-06-26T13:23:28;35.40;35.70
24164;DHT22;12319;49.204;8.116;2023-06-26T13:25:54;35.50;35.60
24164;DHT22;12319;49.204;8.116;2023-06-26T13:28:19;35.70;35.70
24164;DHT22;12319;49.204;8.116;2023-06-26T13:30:45;35.80;35.10
24164;DHT22;12319;49.204;8.116;2023-06-26T13:33:11;35.90;34.90
24164;DHT22;12319;49.204;8.116;2023-06-26T13:35:36;35.90;34.70
24164;DHT22;12319;49.204;8.116;2023-06-26T13:38:02;36.00;34.50
24164;DHT22;12319;49.204;8.116;2023-06-26T13:40:27;36.10;34.10
24164;DHT22;12319;49.204;8.116;2023-06-26T13:42:53;36.10;33.80
24164;DHT22;12319;49.204;8.116;2023-06-26T13:45:19;36.10;33.80
24164;DHT22;12319;49.204;8.116;2023-06-26T13:47:44;36.10;33.60
24164;DHT22;12319;49.204;8.116;2023-06-26T13:50:10;36.10;33.90
24164;DHT22;12319;49.204;8.116;2023-06-26T13:52:36;36.10;33.10
24164;DHT22;12319;49.204;8.116;2023-06-26T13:55:02;36.20;32.80
24164;DHT22;12319;49.204;8.116;2023-06-26T13:57:30;36.20;32.80
24164;DHT22;12319;49.204;8.116;2023-06-26T13:59:55;36.10;32.50
24164;DHT22;12319;49.204;8.116;2023-06-26T14:02:21;36.10;32.60
24164;DHT22;12319;49.204;8.116;2023-06-26T14:04:47;35.90;32.00
24164;DHT22;12319;49.204;8.116;2023-06-26T14:07:13;35.80;31.00
24164;DHT22;12319;49.204;8.116;2023-06-26T14:09:39;35.60;30.70
24164;DHT22;12319;49.204;8.116;2023-06-26T14:12:07;35.60;31.30
24164;DHT22;12319;49.204;8.116;2023-06-26T14:14:33;35.50;31.20
24164;DHT22;12319;49.204;8.116;2023-06-26T14:16:58;35.50;30.50
24164;DHT22;12319;49.204;8.116;2023-06-26T14:19:24;35.50;30.10
24164;DHT22;12319;49.204;8.116;2023-06-26T14:21:51;35.50;30.30
24164;DHT22;12319;49.204;8.116;2023-06-26T14:24:16;35.50;30.10
24164;DHT22;12319;49.204;8.116;2023-06-26T14:26:42;35.30;29.90
24164;DHT22;12319;49.204;8.116;2023-06-26T14:29:07;35.00;29.40
24164;DHT22;12319;49.204;8.116;2023-06-26T14:31:33;34.70;29.20
24164;DHT22;12319;49.204;8.116;2023-06-26T14:33:59;34.40;29.40
24164;DHT22;12319;49.204;8.116;2023-06-26T14:36:24;34.20;29.40
24164;DHT22;12319;49.204;8.116;2023-06-26T14:38:50;33.90;29.60
24164;DHT22;12319;49.204;8.116;2023-06-26T14:41:16;33.60;29.80
24164;DHT22;12319;49.204;8.116;2023-06-26T14:43:41;33.50;29.70
24164;DHT22;12319;49.204;8.116;2023-06-26T14:46:07;33.20;29.90
24164;DHT22;12319;49.204;8.116;2023-06-26T14:48:32;33.10;30.00
24164;DHT22;12319;49.204;8.116;2023-06-26T14:50:58;33.00;30.00
24164;DHT22;12319;49.204;8.116;2023-06-26T14:53:25;32.90;30.00
24164;DHT22;12319;49.204;8.116;2023-06-26T14:55:50;32.80;30.20
24164;DHT22;12319;49.204;8.116;2023-06-26T14:58:16;32.80;30.40
24164;DHT22;12319;49.204;8.116;2023-06-26T15:00:41;32.90;30.20
24164;DHT22;12319;49.204;8.116;2023-06-26T15:03:09;32.90;30.50
24164;DHT22;12319;49.204;8.116;2023-06-26T15:05:34;32.90;30.60
24164;DHT22;12319;49.204;8.116;2023-06-26T15:08:00;33.00;30.30
24164;DHT22;12319;49.204;8.116;2023-06-26T15:10:26;33.20;30.10
24164;DHT22;12319;49.204;8.116;2023-06-26T15:12:51;33.30;29.90
24164;DHT22;12319;49.204;8.116;2023-06-26T15:15:18;33.30;29.80
24164;DHT22;12319;49.204;8.116;2023-06-26T15:17:44;33.30;29.90
24164;DHT22;12319;49.204;8.116;2023-06-26T15:20:10;33.20;30.20
24164;DHT22;12319;49.204;8.116;2023-06-26T15:22:35;33.00;30.00
24164;DHT22;12319;49.204;8.116;2023-06-26T15:25:01;32.70;30.20
24164;DHT22;12319;49.204;8.116;2023-06-26T15:27:26;32.40;30.20
24164;DHT22;12319;49.204;8.116;2023-06-26T15:29:52;32.20;30.40
24164;DHT22;12319;49.204;8.116;2023-06-26T15:32:17;32.00;30.70
24164;DHT22;12319;49.204;8.116;2023-06-26T15:34:43;31.90;30.90
24164;DHT22;12319;49.204;8.116;2023-06-26T15:37:09;31.80;31.10
24164;DHT22;12319;49.204;8.116;2023-06-26T15:39:34;31.70;31.40
24164;DHT22;12319;49.204;8.116;2023-06-26T15:42:00;31.70;31.40
24164;DHT22;12319;49.204;8.116;2023-06-26T15:44:25;31.60;31.40